Time;durP1;ratioP1;P1;durP2;ratioP2;P2;SDS_P1;SDS_P2;PMS_P1;PMS_P2;Temp;Humidity;BMP_temperature;BMP_pressure;BME280_temperature;BME280_humidity;BME280_pressure;Samples;Min_cycle;Max_cycle;Signal;HPM_P1;HPM_P2
2021/11/05 00:01:15;;;;;;;29.10;18.48;;;;;;;10.88;100.00;144930.19;1853434;77;22160;-56
2021/11/05 00:03:50;;;;;;;28.07;18.35;;;;;;;10.94;100.00;144943.98;1835002;77;22156;-61
2021/11/05 00:06:26;;;;;;;28.67;18.80;;;;;;;10.96;100.00;144949.02;1834782;77;22586;-60
2021/11/05 00:09:01;;;;;;;26.95;17.90;;;;;;;10.99;100.00;144957.83;1834959;77;22160;-58
2021/11/05 00:11:37;;;;;;;26.42;17.40;;;;;;;11.02;100.00;144964.09;1843322;77;22180;-58
2021/11/05 00:14:31;;;;;;;26.48;19.12;;;;;;;11.05;100.00;144971.62;1834865;77;22156;-59
2021/11/05 00:17:06;;;;;;;29.25;17.92;;;;;;;11.07;100.00;144977.89;1834953;77;22562;-57
2021/11/05 00:19:40;;;;;;;27.82;16.85;;;;;;;11.11;100.00;144985.41;1843318;77;22156;-60
2021/11/05 00:22:16;;;;;;;24.65;17.23;;;;;;;11.14;100.00;144992.94;1819151;77;28037;-59
2021/11/05 00:24:51;;;;;;;24.52;16.00;;;;;;;11.18;100.00;145002.98;1834912;77;22157;-58
2021/11/05 00:27:26;;;;;;;28.38;17.40;;;;;;;11.21;100.00;145011.75;1834913;77;22160;-57
2021/11/05 00:30:01;;;;;;;25.27;16.73;;;;;;;11.23;100.00;145015.53;1834896;77;22270;-60
2021/11/05 00:32:36;;;;;;;26.68;16.82;;;;;;;11.27;100.00;145025.53;1848154;78;22210;-57
2021/11/05 00:35:14;;;;;;;23.32;16.73;;;;;;;11.27;100.00;145025.53;1819291;77;28443;-60
2021/11/05 00:37:49;;;;;;;25.65;16.80;;;;;;;11.35;100.00;145044.36;1834924;77;22161;-58
2021/11/05 00:40:49;;;;;;;25.68;16.57;;;;;;;11.41;100.00;145059.45;1834143;77;22213;-55
2021/11/05 00:43:25;;;;;;;23.80;15.60;;;;;;;11.44;100.00;145068.22;1834707;77;22166;-59
2021/11/05 00:46:01;;;;;;;23.60;16.30;;;;;;;11.47;100.00;145075.78;1819168;77;28012;-58
2021/11/05 00:48:57;;;;;;;23.32;16.35;;;;;;;11.53;100.00;145088.34;1828911;77;28074;-61
2021/11/05 00:51:34;;;;;;;25.40;15.93;;;;;;;11.55;100.00;145093.33;1834707;77;22176;-60
2021/11/05 00:54:08;;;;;;;23.95;16.85;;;;;;;11.57;100.00;145098.34;1834959;77;22124;-59
2021/11/05 00:56:45;;;;;;;28.35;18.30;;;;;;;11.59;100.00;145103.38;1853417;77;22204;-60
2021/11/05 00:59:20;;;;;;;23.75;16.17;;;;;;;11.59;100.00;145103.38;1834945;77;22180;-57
2021/11/05 01:01:55;;;;;;;26.20;17.17;;;;;;;11.59;100.00;145104.62;1834935;77;22156;-58
2021/11/05 01:04:30;;;;;;;25.85;16.65;;;;;;;11.61;100.00;145109.66;1834977;77;22147;-59
2021/11/05 01:07:05;;;;;;;25.48;16.40;;;;;;;11.59;100.00;145104.62;1835121;77;22325;-59
2021/11/05 01:10:00;;;;;;;29.25;16.70;;;;;;;11.59;100.00;145104.62;1834983;77;22124;-59
2021/11/05 01:12:41;;;;;;;31.33;18.80;;;;;;;11.61;100.00;145109.66;1834116;77;22189;-60
2021/11/05 01:15:16;;;;;;;26.27;17.23;;;;;;;11.61;100.00;145108.41;1853483;77;22139;-59
2021/11/05 01:17:51;;;;;;;26.65;17.32;;;;;;;11.65;100.00;145118.42;1834972;77;22157;-59
2021/11/05 01:20:26;;;;;;;27.07;17.40;;;;;;;11.64;100.00;145115.94;1834914;77;22563;-62
2021/11/05 01:23:03;;;;;;;28.73;18.17;;;;;;;11.62;100.00;145110.91;1834737;77;22160;-60
2021/11/05 01:25:39;;;;;;;24.82;18.10;;;;;;;11.62;100.00;145110.91;1819257;77;28003;-60
2021/11/05 01:28:14;;;;;;;24.20;16.95;;;;;;;11.63;100.00;145113.44;1819355;77;28022;-58
2021/11/05 01:30:50;;;;;;;27.98;18.32;;;;;;;11.71;100.00;145133.52;1834698;77;22179;-58
2021/11/05 01:33:47;;;;;;;26.62;18.12;;;;;;;11.70;100.00;145132.28;1834948;77;22602;-60
2021/11/05 01:36:25;;;;;;;30.88;18.25;;;;;;;11.71;100.00;145134.77;1821824;77;22652;-59
2021/11/05 01:39:00;;;;;;;27.62;19.00;;;;;;;11.70;100.00;145130.98;1834929;77;22575;-59
2021/11/05 01:41:56;;;;;;;31.45;19.52;;;;;;;11.69;100.00;145128.48;1853404;77;22135;-60
2021/11/05 01:44:30;;;;;;;32.65;20.00;;;;;;;11.70;100.00;145132.28;1834913;77;22136;-57
2021/11/05 01:47:05;;;;;;;30.27;18.55;;;;;;;11.70;100.00;145130.98;1834925;77;22156;-59
2021/11/05 01:49:40;;;;;;;28.65;19.07;;;;;;;11.71;100.00;145134.77;1834892;77;22555;-59
2021/11/05 01:52:16;;;;;;;28.10;18.40;;;;;;;11.73;100.00;145139.80;1853494;77;22144;-60
2021/11/05 01:54:53;;;;;;;27.35;18.02;;;;;;;11.75;100.00;145143.53;1837796;77;28067;-56
2021/11/05 01:57:28;;;;;;;29.05;18.55;;;;;;;11.80;100.00;145156.09;1835035;77;22125;-59
2021/11/05 02:00:26;;;;;;;27.00;18.52;;;;;;;11.84;100.00;145166.16;1834858;77;22160;-56
2021/11/05 02:03:02;;;;;;;30.05;18.92;;;;;;;11.87;100.00;145173.72;1834940;77;22193;-60
2021/11/05 02:05:39;;;;;;;25.97;17.67;;;;;;;11.89;100.00;145178.75;1834699;77;22192;-59
2021/11/05 02:08:17;;;;;;;24.87;17.30;;;;;;;11.93;100.00;145188.81;1837715;77;28420;-61
2021/11/05 02:10:56;;;;;;;31.20;18.12;;;;;;;11.97;100.00;145196.34;1835006;77;22161;-60
2021/11/05 02:13:33;;;;;;;28.35;17.30;;;;;;;12.00;100.00;145205.11;1834916;77;22153;-60
2021/11/05 02:16:10;;;;;;;31.52;19.27;;;;;;;12.01;100.00;145206.36;1834936;77;22156;-59
2021/11/05 02:19:17;;;;;;;30.90;20.08;;;;;;;12.02;100.00;145208.89;1834041;77;22192;-56
2021/11/05 02:21:54;;;;;;;31.40;19.60;;;;;;;12.02;100.00;145210.14;1834938;77;22133;-62
2021/11/05 02:24:32;;;;;;;29.48;18.25;;;;;;;12.02;100.00;145210.14;1834680;77;22175;-59
2021/11/05 02:27:07;;;;;;;27.48;18.20;;;;;;;12.02;100.00;145208.89;1819347;77;28484;-57
2021/11/05 02:29:43;;;;;;;30.15;19.02;;;;;;;12.06;100.00;145218.91;1819255;77;28036;-60
2021/11/05 02:32:26;;;;;;;29.32;18.55;;;;;;;12.13;100.00;145236.50;1853447;77;22655;-60
2021/11/05 02:35:04;;;;;;;26.35;17.82;;;;;;;12.13;100.00;145237.75;1837713;77;28445;-59
2021/11/05 02:37:39;;;;;;;24.55;17.12;;;;;;;12.19;100.00;145251.59;1834922;77;22226;-57
2021/11/05 02:40:17;;;;;;;28.23;18.25;;;;;;;12.22;100.00;145259.13;1834809;77;22124;-59
2021/11/05 02:43:11;;;;;;;31.15;19.17;;;;;;;12.22;100.00;145259.13;1853436;77;22574;-59
2021/11/05 02:45:49;;;;;;;30.48;18.82;;;;;;;12.21;100.00;145255.34;1834873;77;22176;-55
2021/11/05 02:48:27;;;;;;;32.20;19.00;;;;;;;12.22;100.00;145257.87;1834872;77;22584;-57
2021/11/05 02:51:02;;;;;;;31.68;19.32;;;;;;;12.22;100.00;145259.13;1853553;77;22151;-58
2021/11/05 02:53:39;;;;;;;27.32;18.25;;;;;;;12.23;100.00;145260.38;1819251;77;28017;-60
2021/11/05 02:56:14;;;;;;;26.52;17.65;;;;;;;12.29;100.00;145275.47;1834930;77;22149;-58
2021/11/05 02:58:50;;;;;;;30.48;19.45;;;;;;;12.29;100.00;145275.47;1843364;77;22582;-57
2021/11/05 03:01:44;;;;;;;31.48;18.77;;;;;;;12.31;100.00;145281.75;1834821;77;22582;-57
2021/11/05 03:04:22;;;;;;;31.37;19.42;;;;;;;12.35;100.00;145291.77;1853475;77;22132;-58
2021/11/05 03:07:16;;;;;;;32.78;19.48;;;;;;;12.35;100.00;145291.77;1834918;77;22148;-59
2021/11/05 03:10:15;;;;;;;27.73;17.75;;;;;;;12.36;100.00;145294.31;1834867;77;22149;-59
2021/11/05 03:12:51;;;;;;;31.02;19.40;;;;;;;12.35;100.00;145291.77;1834766;77;22161;-61
2021/11/05 03:15:26;;;;;;;29.87;19.02;;;;;;;12.37;100.00;145295.56;1834859;77;22139;-61
2021/11/05 03:18:01;;;;;;;32.10;19.15;;;;;;;12.36;100.00;145294.31;1834911;77;22157;-57
2021/11/05 03:20:36;;;;;;;30.48;19.15;;;;;;;12.37;100.00;145296.80;1834923;77;22124;-57
2021/11/05 03:23:30;;;;;;;33.50;19.37;;;;;;;12.40;100.00;145301.83;1834885;77;22124;-59
2021/11/05 03:26:05;;;;;;;28.75;19.02;;;;;;;12.39;100.00;145300.59;1819251;77;28366;-56
2021/11/05 03:28:40;;;;;;;32.33;19.07;;;;;;;12.42;100.00;145306.88;1800695;79;22583;-56
2021/11/05 03:31:15;;;;;;;29.72;18.95;;;;;;;12.43;100.00;145309.36;1834922;77;22149;-59
2021/11/05 03:33:50;;;;;;;32.45;19.95;;;;;;;12.43;100.00;145310.61;1834998;77;22128;-58
2021/11/05 03:36:25;;;;;;;34.18;19.55;;;;;;;12.46;100.00;145316.89;1834917;77;22125;-57
2021/11/05 03:39:19;;;;;;;36.73;20.48;;;;;;;12.48;100.00;145321.92;1853429;77;22151;-56
2021/11/05 03:41:54;;;;;;;32.23;20.27;;;;;;;12.49;100.00;145325.70;1834910;77;22133;-59
2021/11/05 03:44:35;;;;;;;33.28;19.32;;;;;;;12.54;100.00;145336.97;1834073;77;22583;-61
2021/11/05 03:47:29;;;;;;;37.80;21.12;;;;;;;12.57;100.00;145344.56;1834914;77;22128;-59
2021/11/05 03:50:23;;;;;;;37.70;21.07;;;;;;;12.62;100.00;145357.11;1929069;74;22235;-57
2021/11/05 03:53:00;;;;;;;34.60;21.42;;;;;;;12.62;100.00;145357.11;1834724;77;22168;-58
2021/11/05 03:55:37;;;;;;;31.05;19.67;;;;;;;12.65;100.00;145364.64;1834825;77;22586;-59
2021/11/05 03:58:32;;;;;;;36.80;21.60;;;;;;;12.70;100.00;145377.20;1834864;77;22137;-61
2021/11/05 04:01:07;;;;;;;32.70;19.92;;;;;;;12.73;100.00;145384.73;1834853;77;22128;-56
2021/11/05 04:03:42;;;;;;;35.58;20.15;;;;;;;12.79;100.00;145399.78;1834865;77;22153;-57
2021/11/05 04:06:19;;;;;;;32.00;20.12;;;;;;;12.85;100.00;145412.34;1834936;77;22156;-56
2021/11/05 04:08:54;;;;;;;33.75;20.62;;;;;;;12.90;100.00;145424.92;1834856;77;22590;-57
2021/11/05 04:11:29;;;;;;;32.55;20.75;;;;;;;12.93;100.00;145433.73;1834913;77;22149;-61
2021/11/05 04:14:04;;;;;;;39.08;21.25;;;;;;;12.96;100.00;145440.03;1853494;77;22582;-58
2021/11/05 04:16:39;;;;;;;34.10;20.05;;;;;;;12.98;100.00;145445.06;1834909;77;22198;-59
2021/11/05 04:19:14;;;;;;;40.35;21.57;;;;;;;13.01;100.00;145452.59;1834920;77;22168;-60
2021/11/05 04:21:49;;;;;;;34.60;19.75;;;;;;;12.99;100.00;145447.56;1834931;77;22148;-58
2021/11/05 04:24:24;;;;;;;32.03;21.27;;;;;;;12.99;100.00;145447.56;1837707;77;27922;-54
2021/11/05 04:26:59;;;;;;;34.88;19.62;;;;;;;13.04;100.00;145460.13;1853452;77;22156;-55
2021/11/05 04:29:36;;;;;;;31.68;21.55;;;;;;;13.09;100.00;145472.69;1834793;77;22156;-59
2021/11/05 04:32:11;;;;;;;36.10;22.17;;;;;;;13.12;100.00;145480.22;1837726;77;28021;-57
2021/11/05 04:34:46;;;;;;;33.15;21.37;;;;;;;13.21;100.00;145502.86;1834892;77;22237;-55
2021/11/05 04:37:59;;;;;;;35.23;20.70;;;;;;;13.23;100.00;145507.89;1836321;77;22304;-61
2021/11/05 04:40:48;;;;;;;34.95;21.68;;;;;;;13.24;100.00;145510.39;1834870;77;22187;-60
2021/11/05 04:43:42;;;;;;;32.93;21.33;;;;;;;13.25;100.00;145511.64;1834770;77;22198;-57
2021/11/05 04:46:36;;;;;;;36.40;21.00;;;;;;;13.25;100.00;145512.94;1835015;77;22128;-59
2021/11/05 04:49:12;;;;;;;36.08;22.17;;;;;;;13.28;100.00;145519.27;1819235;77;28004;-58
2021/11/05 04:51:47;;;;;;;35.15;22.22;;;;;;;13.38;100.00;145543.11;1834851;77;22148;-58
2021/11/05 04:54:22;;;;;;;36.30;22.37;;;;;;;13.34;100.00;145534.33;1853472;77;22132;-57
2021/11/05 04:56:57;;;;;;;38.92;21.60;;;;;;;13.33;100.00;145530.53;1853441;77;22159;-60
2021/11/05 04:59:32;;;;;;;35.40;23.05;;;;;;;13.38;100.00;145543.11;1785285;79;28114;-60
2021/11/05 05:02:07;;;;;;;40.75;22.48;;;;;;;13.45;100.00;145561.97;1834950;77;22179;-57
2021/11/05 05:04:45;;;;;;;39.95;21.85;;;;;;;13.49;100.00;145569.55;1834912;77;22148;-58
2021/11/05 05:07:38;;;;;;;33.75;20.27;;;;;;;13.46;100.00;145564.50;1834950;77;22172;-59
2021/11/05 05:10:33;;;;;;;36.80;22.70;;;;;;;13.43;100.00;145556.97;1834751;77;22254;-59
2021/11/05 05:13:08;;;;;;;38.50;22.87;;;;;;;13.40;100.00;145548.16;1853488;77;22550;-58
2021/11/05 05:15:42;;;;;;;36.83;21.75;;;;;;;13.40;100.00;145549.39;1834923;77;22124;-60
2021/11/05 05:18:17;;;;;;;40.70;22.05;;;;;;;13.43;100.00;145555.69;1835002;77;22149;-60
2021/11/05 05:21:13;;;;;;;37.88;22.60;;;;;;;13.43;100.00;145555.69;1834838;77;22120;-56
2021/11/05 05:23:48;;;;;;;36.77;22.70;;;;;;;13.42;100.00;145553.19;1834850;77;22128;-61
2021/11/05 05:26:43;;;;;;;39.40;23.07;;;;;;;13.41;100.00;145550.69;1835014;77;22157;-56
2021/11/05 05:29:20;;;;;;;42.67;24.35;;;;;;;13.44;100.00;145558.22;1853430;77;22613;-60
2021/11/05 05:32:14;;;;;;;38.67;22.93;;;;;;;13.45;100.00;145560.72;1835035;77;22128;-62
2021/11/05 05:34:50;;;;;;;43.42;24.35;;;;;;;13.52;100.00;145577.08;1837827;77;27998;-60
2021/11/05 05:37:44;;;;;;;37.65;22.58;;;;;;;13.60;100.00;145598.42;1834648;77;22330;-61
2021/11/05 05:40:22;;;;;;;38.55;24.60;;;;;;;13.61;100.00;145599.67;1819353;77;27999;-57
2021/11/05 05:42:57;;;;;;;37.63;23.18;;;;;;;13.72;100.00;145626.12;1853477;77;22131;-60
2021/11/05 05:45:33;;;;;;;36.50;22.80;;;;;;;13.77;100.00;145639.94;1853478;77;22187;-58
2021/11/05 05:48:09;;;;;;;38.00;24.63;;;;;;;13.76;100.00;145636.14;1819436;77;38456;-55
2021/11/05 05:50:44;;;;;;;38.78;22.77;;;;;;;13.81;100.00;145648.72;1834937;77;22542;-56
2021/11/05 05:53:21;;;;;;;34.85;22.10;;;;;;;13.82;100.00;145652.52;1834994;77;22132;-61
2021/11/05 05:55:56;;;;;;;35.65;22.70;;;;;;;13.82;100.00;145651.27;1834826;77;22258;-59
2021/11/05 05:58:37;;;;;;;35.52;23.00;;;;;;;13.76;100.00;145636.14;1834009;77;22352;-59
2021/11/05 06:01:30;;;;;;;35.43;22.60;;;;;;;13.75;100.00;145633.66;1834868;77;22133;-56
2021/11/05 06:04:12;;;;;;;38.42;23.47;;;;;;;13.77;100.00;145638.69;1834117;77;22155;-57
2021/11/05 06:06:47;;;;;;;42.98;24.90;;;;;;;13.78;100.00;145641.19;1834965;77;22163;-58
2021/11/05 06:09:22;;;;;;;40.98;25.35;;;;;;;13.81;100.00;145649.97;1837722;77;27957;-57
2021/11/05 06:11:57;;;;;;;36.40;22.73;;;;;;;13.83;100.00;145653.77;1834708;77;22140;-60
2021/11/05 06:14:32;;;;;;;38.90;22.93;;;;;;;13.85;100.00;145658.80;1834875;77;22175;-57
2021/11/05 06:17:07;;;;;;;43.20;24.72;;;;;;;13.83;100.00;145653.77;1837714;77;28407;-55
2021/11/05 06:19:43;;;;;;;44.50;23.75;;;;;;;13.89;100.00;145668.83;1834837;77;22242;-57
2021/11/05 06:22:19;;;;;;;41.02;25.95;;;;;;;13.90;100.00;145671.37;1819337;77;28137;-59
2021/11/05 06:24:56;;;;;;;37.98;24.40;;;;;;;13.93;100.00;145678.91;1834859;77;20215;-57
2021/11/05 06:27:30;;;;;;;39.10;22.87;;;;;;;13.91;100.00;145673.88;1829270;77;22575;-55
2021/11/05 06:30:08;;;;;;;38.45;22.98;;;;;;;13.89;100.00;145670.12;1818008;77;22591;-57
2021/11/05 06:32:43;;;;;;;42.48;24.60;;;;;;;13.85;100.00;145660.05;1820541;77;22164;-56
2021/11/05 06:35:18;;;;;;;40.25;24.15;;;;;;;13.83;100.00;145653.77;1834920;77;22547;-56
2021/11/05 06:38:13;;;;;;;42.10;23.47;;;;;;;13.87;100.00;145665.09;1834874;77;22239;-58
2021/11/05 06:40:54;;;;;;;39.92;23.60;;;;;;;13.93;100.00;145677.66;1816491;77;22280;-58
2021/11/05 06:43:30;;;;;;;42.93;25.62;;;;;;;13.98;100.00;145691.48;1804135;77;28011;-59
2021/11/05 06:46:07;;;;;;;42.35;24.98;;;;;;;14.09;100.00;145719.19;1819172;77;22220;-57
2021/11/05 06:48:42;;;;;;;40.10;23.80;;;;;;;14.11;100.00;145724.17;1829704;77;22123;-54
2021/11/05 06:51:17;;;;;;;40.43;24.60;;;;;;;14.16;100.00;145734.25;1816133;77;22187;-58
2021/11/05 06:53:52;;;;;;;46.65;25.35;;;;;;;14.17;100.00;145736.75;1823411;77;22159;-57
2021/11/05 06:56:27;;;;;;;42.58;25.23;;;;;;;14.19;100.00;145743.03;1820114;77;22144;-58
2021/11/05 06:59:07;;;;;;;46.08;26.17;;;;;;;14.23;100.00;145751.88;1819675;77;22203;-59
2021/11/05 07:01:42;;;;;;;45.67;27.25;;;;;;;14.25;100.00;145758.16;1834901;77;22199;-60
2021/11/05 07:04:17;;;;;;;49.03;26.10;;;;;;;14.30;100.00;145769.48;1834835;77;22168;-60
2021/11/05 07:06:53;;;;;;;41.88;24.15;;;;;;;14.29;100.00;145766.94;1834924;77;22176;-57
2021/11/05 07:09:29;;;;;;;44.80;26.90;;;;;;;14.28;100.00;145764.45;1814585;77;28227;-56
2021/11/05 07:12:06;;;;;;;38.20;24.10;;;;;;;14.37;100.00;145785.81;1834774;77;22128;-58
2021/11/05 07:14:41;;;;;;;38.20;24.05;;;;;;;14.42;100.00;145799.64;1803991;77;22196;-59
2021/11/05 07:17:38;;;;;;;43.25;26.27;;;;;;;14.48;100.00;145813.52;1817933;77;29398;-56
2021/11/05 07:20:14;;;;;;;42.67;27.90;;;;;;;14.52;100.00;145824.81;1818504;77;28065;-56
2021/11/05 07:22:49;;;;;;;38.65;24.70;;;;;;;14.58;100.00;145837.44;1852731;77;22223;-57
2021/11/05 07:25:45;;;;;;;43.48;25.57;;;;;;;14.58;100.00;145837.44;1834669;77;22575;-56
2021/11/05 07:28:21;;;;;;;46.20;25.10;;;;;;;14.61;100.00;145845.02;1843237;77;22172;-59
2021/11/05 07:30:58;;;;;;;49.05;26.33;;;;;;;14.58;100.00;145837.44;1853423;77;22155;-60
2021/11/05 07:33:33;;;;;;;44.65;25.32;;;;;;;14.65;100.00;145856.30;1834881;77;22214;-57
2021/11/05 07:36:08;;;;;;;41.48;26.85;;;;;;;14.71;100.00;145871.44;1853394;77;22224;-55
2021/11/05 07:38:42;;;;;;;42.48;24.77;;;;;;;14.81;100.00;145894.05;1853434;77;22128;-61
2021/11/05 07:41:18;;;;;;;46.13;24.07;;;;;;;14.87;100.00;145910.44;1824900;77;22143;-58
2021/11/05 07:44:13;;;;;;;43.78;28.10;;;;;;;14.93;100.00;145925.56;1801830;77;28165;-57
2021/11/05 07:46:49;;;;;;;38.20;26.15;;;;;;;15.04;100.00;145950.73;1805642;77;28098;-59
2021/11/05 07:49:25;;;;;;;42.50;27.65;;;;;;;15.10;100.00;145965.81;1817972;77;28561;-58
2021/11/05 07:52:00;;;;;;;44.23;27.98;;;;;;;15.18;100.00;145985.94;1800449;77;27914;-57
2021/11/05 07:54:35;;;;;;;47.65;27.25;;;;;;;15.25;99.30;146003.58;1819927;77;22188;-56
2021/11/05 07:57:10;;;;;;;47.88;25.95;;;;;;;15.24;100.00;146001.08;1834844;77;22152;-60
2021/11/05 07:59:46;;;;;;;41.85;25.12;;;;;;;15.31;99.69;146018.66;1843590;77;22144;-57
2021/11/05 08:02:21;;;;;;;43.23;27.30;;;;;;;15.33;99.52;146023.70;1837172;77;28006;-59
2021/11/05 08:04:56;;;;;;;46.35;28.38;;;;;;;15.38;99.26;146036.30;1837640;77;28397;-58
2021/11/05 08:07:39;;;;;;;40.03;25.25;;;;;;;15.45;98.92;146051.44;1833944;77;22168;-56
2021/11/05 08:10:20;;;;;;;42.13;24.80;;;;;;;15.47;98.45;146056.44;1834864;77;22140;-60
2021/11/05 08:12:51;;;;;;;46.25;25.77;;;;;;;15.44;98.16;146048.89;1853381;77;22590;-59
2021/11/05 08:15:32;;;;;;;46.85;27.13;;;;;;;15.43;98.06;146046.39;1827493;77;22195;-55
2021/11/05 08:18:46;;;;;;;46.48;25.02;;;;;;;15.37;97.20;146033.80;1845892;77;22223;-58
2021/11/05 08:21:27;;;;;;;43.63;25.52;;;;;;;15.43;97.67;146047.64;1820681;77;22245;-58
2021/11/05 08:24:03;;;;;;;44.58;25.85;;;;;;;15.40;97.90;146041.34;1808770;77;22168;-57
2021/11/05 08:26:39;;;;;;;41.20;24.72;;;;;;;15.44;97.72;146048.89;1824967;77;22197;-59
2021/11/05 08:29:33;;;;;;;45.30;25.60;;;;;;;15.50;97.75;146065.28;1828850;77;22212;-58
2021/11/05 08:32:15;;;;;;;42.45;24.10;;;;;;;15.56;97.25;146080.36;1836308;77;22179;-62
2021/11/05 08:34:50;;;;;;;40.33;26.82;;;;;;;15.60;96.94;146089.20;1824843;77;28010;-57
2021/11/05 08:37:44;;;;;;;42.23;25.60;;;;;;;15.66;96.71;146103.05;1829741;77;22148;-60
2021/11/05 11:34:37;;;;;;;34.90;23.07;;;;;;;17.02;89.92;146439.53;1847114;78;28498;-63
2021/11/05 11:37:13;;;;;;;32.05;22.42;;;;;;;17.09;89.36;146457.14;1853455;77;22128;-61
2021/11/05 11:39:49;;;;;;;34.98;22.60;;;;;;;17.14;88.97;146468.50;1834729;77;22184;-62
2021/11/05 11:42:24;;;;;;;36.00;21.80;;;;;;;17.18;88.59;146478.59;1853506;77;22573;-61
2021/11/05 11:45:01;;;;;;;36.98;22.55;;;;;;;17.23;88.41;146489.95;1853464;77;22128;-62
2021/11/05 11:47:46;;;;;;;39.63;23.60;;;;;;;17.22;88.19;146487.41;1834945;77;22160;-64
2021/11/05 11:50:37;;;;;;;34.40;22.13;;;;;;;17.27;88.31;146500.02;1852649;77;22252;-65
2021/11/05 11:53:31;;;;;;;32.28;21.85;;;;;;;17.36;87.90;146522.72;1852953;77;22191;-63
2021/11/05 11:56:33;;;;;;;31.40;21.97;;;;;;;17.44;87.05;146542.89;1833955;77;22250;-61
2021/11/05 11:59:14;;;;;;;34.67;22.07;;;;;;;17.36;85.55;146522.72;1825502;77;22285;-62
2021/11/05 12:02:40;;;;;;;30.08;21.82;;;;;;;17.41;85.88;146535.33;1834778;77;22566;-64
2021/11/05 12:05:24;;;;;;;33.25;22.70;;;;;;;17.42;85.87;146537.83;1818833;77;28069;-60
2021/11/05 12:08:38;;;;;;;32.13;21.52;;;;;;;17.48;85.37;146553.00;1834781;77;22192;-62
2021/11/05 12:11:28;;;;;;;30.95;20.52;;;;;;;17.47;85.42;146549.19;1833959;77;22209;-60
2021/11/05 12:14:11;;;;;;;33.92;23.70;;;;;;;17.45;85.24;146545.39;1827968;77;28010;-61
2021/11/05 12:17:03;;;;;;;32.98;21.57;;;;;;;17.51;85.29;146560.55;1853078;77;22626;-64
2021/11/05 12:19:44;;;;;;;30.20;22.17;;;;;;;17.56;84.77;146573.16;1825483;77;22217;-61
2021/11/05 12:22:19;;;;;;;31.80;21.97;;;;;;;17.60;84.54;146580.72;1853415;77;22136;-58
2021/11/05 12:25:22;;;;;;;31.62;20.57;;;;;;;17.61;84.16;146583.27;1853120;77;22782;-64
2021/11/05 12:28:20;;;;;;;33.58;22.07;;;;;;;17.53;84.13;146565.61;1834862;77;22172;-62
2021/11/05 12:31:29;;;;;;;32.50;21.68;;;;;;;17.53;84.43;146565.61;1853263;77;22163;-65
2021/11/05 12:34:35;;;;;;;30.30;21.85;;;;;;;17.49;84.50;146554.25;1833329;77;22191;-64
2021/11/05 12:37:43;;;;;;;31.82;21.87;;;;;;;17.42;85.10;146536.58;1834564;77;22175;-63
2021/11/05 12:40:41;;;;;;;32.10;21.27;;;;;;;17.45;85.10;146544.14;1853403;77;22182;-60
2021/11/05 12:43:38;;;;;;;32.53;22.45;;;;;;;17.50;84.91;146558.05;1853442;77;22127;-65
2021/11/05 12:46:18;;;;;;;32.28;22.20;;;;;;;17.56;84.81;146573.16;1834494;77;22157;-60
2021/11/05 12:48:57;;;;;;;36.35;23.02;;;;;;;17.63;84.50;146588.27;1834978;77;22160;-60
2021/11/05 12:51:41;;;;;;;31.35;23.70;;;;;;;17.67;84.23;146598.38;1834787;77;22197;-61
2021/11/05 12:54:26;;;;;;;31.57;22.30;;;;;;;17.69;83.95;146604.69;1834605;77;22580;-64
2021/11/05 12:57:07;;;;;;;31.23;22.75;;;;;;;17.68;83.89;146602.19;1833622;77;22176;-61
2021/11/05 13:00:11;;;;;;;40.70;23.73;;;;;;;17.67;83.83;146598.38;1853373;77;22183;-60
2021/11/05 13:02:57;;;;;;;36.75;23.83;;;;;;;17.62;84.09;146587.02;1834786;77;22617;-60
2021/11/05 13:05:59;;;;;;;39.95;24.98;;;;;;;17.64;84.08;146590.81;1852991;77;22173;-60
2021/11/05 13:08:59;;;;;;;37.73;24.67;;;;;;;17.63;84.09;146588.27;1834012;77;22177;-60
2021/11/05 13:12:09;;;;;;;31.70;22.48;;;;;;;17.55;84.37;146570.66;1833595;77;22225;-59
2021/11/05 13:15:05;;;;;;;39.35;22.35;;;;;;;17.48;84.63;146553.00;1853139;77;22183;-61
2021/11/05 13:18:00;;;;;;;30.37;21.40;;;;;;;17.42;85.04;146537.83;1853289;77;22159;-60
2021/11/05 13:21:01;;;;;;;34.30;22.80;;;;;;;17.44;85.41;146542.89;1833980;77;22627;-61
2021/11/05 13:24:02;;;;;;;35.95;23.12;;;;;;;17.50;85.48;146558.05;1853279;77;22204;-61
2021/11/05 13:27:07;;;;;;;34.95;22.35;;;;;;;17.54;85.50;146566.86;1834622;77;22558;-65
2021/11/05 13:30:02;;;;;;;36.98;25.88;;;;;;;17.52;85.46;146563.06;1834770;77;22314;-64
2021/11/05 13:32:38;;;;;;;36.88;22.77;;;;;;;17.34;85.28;146517.67;1834862;77;22187;-60
2021/11/05 13:38:29;;;;;;;42.43;25.12;;;;;;;17.22;86.16;146487.41;1853444;77;22561;-61
2021/11/05 13:41:08;;;;;;;39.15;25.02;;;;;;;17.03;87.04;146440.78;1835164;77;22132;-60
2021/11/05 13:43:50;;;;;;;38.35;24.45;;;;;;;16.88;87.68;146405.47;1834908;77;22579;-59
2021/11/05 13:46:29;;;;;;;38.00;23.92;;;;;;;16.83;88.15;146392.88;1834480;77;22193;-61
2021/11/05 13:49:44;;;;;;;36.73;24.27;;;;;;;16.78;88.56;146380.28;1836363;77;22196;-62
2021/11/05 13:52:57;;;;;;;40.23;25.57;;;;;;;16.73;88.78;146366.37;1834870;77;22627;-58
2021/11/05 13:55:40;;;;;;;38.33;25.17;;;;;;;16.68;89.11;146355.02;1847830;77;22187;-61
2021/11/05 13:58:29;;;;;;;42.08;27.75;;;;;;;16.62;89.33;146341.17;1837458;77;28002;-61
2021/11/05 14:01:04;;;;;;;39.00;24.12;;;;;;;16.61;89.62;146337.38;1853547;77;22156;-61
2021/11/05 14:03:52;;;;;;;34.80;24.40;;;;;;;16.54;89.88;146321.02;1853753;77;22212;-62
2021/11/05 14:06:50;;;;;;;38.80;24.87;;;;;;;16.44;90.24;146295.81;1834569;77;22161;-62
2021/11/05 14:09:51;;;;;;;45.40;25.15;;;;;;;16.36;90.58;146276.92;1834601;77;22156;-58
2021/11/05 14:12:56;;;;;;;37.10;23.47;;;;;;;16.26;91.10;146251.72;1835006;77;22583;-60
2021/11/05 14:15:52;;;;;;;39.92;25.55;;;;;;;16.18;91.66;146232.83;1834617;77;22164;-61
2021/11/05 14:19:09;;;;;;;39.45;25.62;;;;;;;16.10;92.07;146212.64;1853369;77;22207;-62
2021/11/05 14:22:08;;;;;;;37.58;24.85;;;;;;;16.05;92.45;146200.05;1834936;77;22132;-59
2021/11/05 14:24:51;;;;;;;38.02;25.27;;;;;;;15.99;92.84;146186.19;1853381;77;22191;-61
2021/11/05 14:27:31;;;;;;;41.98;25.72;;;;;;;16.01;92.75;146190.00;1834816;77;22164;-60
2021/11/05 14:30:22;;;;;;;39.27;27.48;;;;;;;16.07;92.78;146205.09;1818591;77;28435;-58
2021/11/05 14:33:02;;;;;;;41.35;28.47;;;;;;;16.13;92.85;146218.94;1819316;77;28075;-60
2021/11/05 14:35:43;;;;;;;38.48;24.60;;;;;;;16.18;92.73;146232.83;1853337;77;22231;-60
2021/11/05 14:38:37;;;;;;;41.40;24.52;;;;;;;16.15;92.72;146223.98;1834854;77;22262;-60
2021/11/05 14:41:12;;;;;;;38.95;24.57;;;;;;;16.06;93.07;146202.59;1853546;77;22163;-60
2021/11/05 14:43:53;;;;;;;37.42;23.98;;;;;;;15.99;93.72;146184.94;1826648;77;22586;-59
2021/11/05 14:46:44;;;;;;;38.33;24.80;;;;;;;15.75;94.36;146127.03;1853210;77;22222;-61
2021/11/05 14:49:26;;;;;;;40.63;23.38;;;;;;;15.67;95.31;146106.78;1826488;77;22182;-64
2021/11/05 14:52:26;;;;;;;43.00;25.57;;;;;;;15.72;95.34;146119.48;1852915;77;22183;-59
2021/11/05 14:55:25;;;;;;;39.80;25.10;;;;;;;15.69;95.70;146111.89;1834910;77;22156;-61
2021/11/05 14:58:37;;;;;;;42.80;24.63;;;;;;;15.69;95.90;146111.89;1843205;77;20206;-61
2021/11/05 15:01:23;;;;;;;36.75;24.43;;;;;;;15.66;96.20;146104.30;1835985;77;28399;-59
2021/11/05 15:04:08;;;;;;;39.27;23.18;;;;;;;15.67;96.48;146106.78;1833808;77;22188;-63
2021/11/05 15:06:42;;;;;;;34.83;22.67;;;;;;;15.57;96.93;146081.61;1834797;77;22550;-60
2021/11/05 15:09:25;;;;;;;37.67;23.57;;;;;;;15.61;96.81;146091.70;1853424;77;22179;-63
2021/11/05 15:12:00;;;;;;;40.78;23.83;;;;;;;15.59;96.91;146087.91;1847987;78;22140;-62